Time;durP1;ratioP1;P1;durP2;ratioP2;P2;SDS_P1;SDS_P2;PMS_P1;PMS_P2;Temp;Humidity;BMP_temperature;BMP_pressure;BME280_temperature;BME280_humidity;BME280_pressure;Samples;Min_cycle;Max_cycle;Signal;HPM_P1;HPM_P2
2022/10/05 00:00:30;;;;;;;7.03;5.15;;;15.60;98.30;;;;;;5044252;28;20040;-62
2022/10/05 00:02:56;;;;;;;9.80;5.70;;;15.60;98.30;;;;;;5052766;28;20025;-62
2022/10/05 00:05:40;;;;;;;6.95;4.93;;;15.60;98.30;;;;;;5043738;28;20028;-62
2022/10/05 00:08:17;;;;;;;6.82;5.10;;;15.70;98.20;;;;;;5048731;28;20029;-62
2022/10/05 00:10:44;;;;;;;7.68;5.00;;;15.70;98.30;;;;;;5063011;28;20389;-62
2022/10/05 00:13:20;;;;;;;7.43;5.30;;;15.60;98.30;;;;;;5059862;28;20127;-62
2022/10/05 00:15:46;;;;;;;6.95;5.82;;;15.70;98.30;;;;;;5037486;28;20032;-62
2022/10/05 00:18:15;;;;;;;9.00;5.90;;;15.60;98.30;;;;;;5045825;28;20052;-62
2022/10/05 00:20:42;;;;;;;8.63;6.38;;;15.60;98.40;;;;;;5040213;28;20021;-62
2022/10/05 00:23:16;;;;;;;9.32;5.85;;;15.60;98.60;;;;;;5044816;28;20056;-62
2022/10/05 00:25:42;;;;;;;8.30;6.15;;;15.50;98.70;;;;;;5042415;28;20032;-62
2022/10/05 00:28:27;;;;;;;7.35;5.57;;;15.50;98.90;;;;;;5047234;28;20021;-62
2022/10/05 00:30:59;;;;;;;7.68;6.05;;;15.50;99.00;;;;;;5039419;28;20109;-62
2022/10/05 00:33:26;;;;;;;8.20;6.38;;;15.50;99.20;;;;;;5039161;28;20526;-63
2022/10/05 00:35:51;;;;;;;9.45;6.35;;;15.50;99.60;;;;;;5044143;28;20032;-62
2022/10/05 00:38:17;;;;;;;8.00;6.38;;;15.40;99.50;;;;;;5043636;28;20013;-62
2022/10/05 00:41:01;;;;;;;10.73;6.72;;;15.40;99.60;;;;;;5041714;28;20526;-62
2022/10/05 00:43:44;;;;;;;11.45;6.65;;;15.40;99.60;;;;;;5043459;28;20152;-63
2022/10/05 00:46:23;;;;;;;12.93;6.75;;;15.40;99.60;;;;;;5040589;28;20021;-62
2022/10/05 00:49:01;;;;;;;8.35;6.32;;;15.40;99.70;;;;;;5045320;28;20104;-62
2022/10/05 00:51:30;;;;;;;9.40;7.25;;;15.40;99.80;;;;;;5051037;28;20025;-62
2022/10/05 00:54:29;;;;;;;11.57;6.97;;;15.40;99.90;;;;;;5042128;28;20067;-62
2022/10/05 00:57:12;;;;;;;11.82;7.22;;;15.40;99.90;;;;;;5048176;28;20068;-62
2022/10/05 00:59:48;;;;;;;7.05;6.30;;;15.30;99.90;;;;;;5045917;28;20614;-62
2022/10/05 01:02:37;;;;;;;10.77;7.63;;;15.30;99.90;;;;;;5050444;28;20536;-63
2022/10/05 01:05:18;;;;;;;;;;;15.30;99.90;;;;;;5049515;28;20138;-63
2022/10/05 01:07:51;;;;;;;10.80;7.90;;;15.20;99.90;;;;;;5048672;28;19904;-63
2022/10/05 01:10:32;;;;;;;10.13;7.60;;;15.20;99.90;;;;;;5046302;28;20548;-63
2022/10/05 01:13:33;;;;;;;11.55;7.55;;;15.20;99.90;;;;;;5047925;28;20493;-62
2022/10/05 01:16:12;;;;;;;12.68;7.90;;;15.20;99.90;;;;;;5031118;28;20033;-63
2022/10/05 01:19:17;;;;;;;15.05;7.82;;;15.20;99.90;;;;;;5048405;28;20122;-62
2022/10/05 01:22:00;;;;;;;10.50;8.07;;;15.20;99.90;;;;;;5063491;28;20391;-62
2022/10/05 01:25:14;;;;;;;10.98;7.95;;;15.20;99.90;;;;;;5037285;28;20025;-62
2022/10/05 01:28:00;;;;;;;10.98;7.45;;;15.20;99.90;;;;;;5032650;28;20037;-62
2022/10/05 01:30:41;;;;;;;10.77;7.80;;;15.20;99.90;;;;;;5045989;28;20326;-62
2022/10/05 01:33:21;;;;;;;11.10;8.63;;;15.20;99.90;;;;;;5047566;28;20029;-62
2022/10/05 01:35:56;;;;;;;8.15;7.35;;;15.20;99.90;;;;;;5064346;28;20567;-62
2022/10/05 01:38:56;;;;;;;10.82;7.22;;;15.20;99.90;;;;;;5051095;28;20017;-62
2022/10/05 01:41:28;;;;;;;;;;;15.20;99.90;;;;;;5045699;28;20123;-62
2022/10/05 01:44:06;;;;;;;10.55;8.32;;;15.20;99.90;;;;;;5050058;28;19915;-62
2022/10/05 01:46:42;;;;;;;10.23;8.48;;;15.10;99.90;;;;;;5041176;28;20036;-62
2022/10/05 01:49:42;;;;;;;11.52;8.30;;;15.10;99.90;;;;;;5045537;28;20040;-63
2022/10/05 01:52:22;;;;;;;;;;;15.20;99.90;;;;;;5046604;28;20445;-62
2022/10/05 01:54:59;;;;;;;11.98;8.32;;;15.10;99.90;;;;;;5048650;28;20426;-62
2022/10/05 01:58:00;;;;;;;11.40;9.07;;;15.00;99.90;;;;;;5050616;28;20480;-63
2022/10/05 02:00:27;;;;;;;13.73;8.98;;;15.10;99.90;;;;;;5046889;28;20021;-62
2022/10/05 02:03:07;;;;;;;14.13;9.57;;;15.10;99.90;;;;;;5050589;28;20032;-62
2022/10/05 02:05:49;;;;;;;11.30;8.75;;;15.00;99.90;;;;;;5051077;28;20028;-62
2022/10/05 02:08:42;;;;;;;11.60;9.50;;;15.00;99.90;;;;;;5043903;28;20128;-62
2022/10/05 02:11:11;;;;;;;12.15;9.77;;;15.00;99.90;;;;;;5045545;28;20067;-62
2022/10/05 02:13:46;;;;;;;12.48;9.65;;;14.90;99.90;;;;;;5063222;28;20571;-62
2022/10/05 02:16:41;;;;;;;15.38;10.15;;;14.90;99.90;;;;;;5046005;28;20107;-63
2022/10/05 02:19:43;;;;;;;12.10;9.48;;;14.90;99.90;;;;;;5048060;28;20021;-62
2022/10/05 02:22:18;;;;;;;12.98;9.73;;;14.90;99.90;;;;;;5061193;28;20029;-62
2022/10/05 02:24:49;;;;;;;11.77;8.80;;;14.80;99.90;;;;;;5050373;28;20123;-62
2022/10/05 02:27:27;;;;;;;11.45;9.63;;;14.80;99.90;;;;;;5050489;28;20036;-62
2022/10/05 02:29:58;;;;;;;12.27;8.95;;;14.80;99.90;;;;;;5043693;28;20068;-62
2022/10/05 02:32:27;;;;;;;11.98;9.27;;;14.80;99.90;;;;;;5052340;28;20099;-62
2022/10/05 02:35:00;;;;;;;13.27;10.23;;;14.80;99.90;;;;;;5047479;28;20021;-62
2022/10/05 02:37:56;;;;;;;11.35;9.82;;;14.80;99.90;;;;;;5045984;28;20033;-62
2022/10/05 02:40:33;;;;;;;12.20;8.85;;;14.80;99.90;;;;;;5049546;28;20433;-62
2022/10/05 02:43:30;;;;;;;15.27;10.82;;;14.70;99.90;;;;;;5043220;28;20037;-62
2022/10/05 02:46:25;;;;;;;14.95;9.85;;;14.70;99.90;;;;;;5044341;28;20021;-62
2022/10/05 02:49:15;;;;;;;11.18;9.85;;;14.70;99.90;;;;;;5048627;28;20111;-62
2022/10/05 02:51:53;;;;;;;;;;;14.60;99.90;;;;;;5047827;28;20397;-63
2022/10/05 02:54:29;;;;;;;13.95;10.82;;;14.60;99.90;;;;;;5046938;28;20331;-62
2022/10/05 02:57:12;;;;;;;14.27;10.13;;;14.50;99.90;;;;;;5031872;28;20236;-62
2022/10/05 02:59:46;;;;;;;14.70;10.13;;;14.50;99.90;;;;;;5043565;28;20060;-62
2022/10/05 03:02:16;;;;;;;12.95;10.95;;;14.50;99.90;;;;;;5047868;28;20484;-62
2022/10/05 03:04:56;;;;;;;15.05;10.40;;;14.50;99.90;;;;;;5051165;28;20456;-62
2022/10/05 03:07:29;;;;;;;13.35;10.07;;;14.50;99.90;;;;;;5040622;28;20365;-62
2022/10/05 03:10:15;;;;;;;15.25;10.32;;;14.50;99.90;;;;;;5046986;28;20485;-62
2022/10/05 03:13:00;;;;;;;13.40;11.13;;;14.50;99.90;;;;;;5034139;28;20037;-62
2022/10/05 03:16:03;;;;;;;13.18;10.20;;;14.50;99.90;;;;;;5057032;28;20026;-62
2022/10/05 03:18:53;;;;;;;12.50;10.25;;;14.50;99.90;;;;;;5045720;28;20483;-62
2022/10/05 03:21:26;;;;;;;;;;;14.60;99.90;;;;;;5047211;28;20056;-62
2022/10/05 03:24:10;;;;;;;12.57;9.73;;;14.60;99.90;;;;;;5047665;28;19993;-62
2022/10/05 03:26:50;;;;;;;13.07;10.52;;;14.60;99.90;;;;;;5048125;28;20029;-62
2022/10/05 03:29:37;;;;;;;13.68;10.45;;;14.60;99.90;;;;;;5043534;28;20025;-62
2022/10/05 03:32:24;;;;;;;15.23;9.90;;;14.70;99.90;;;;;;5049119;28;20021;-63
2022/10/05 03:35:05;;;;;;;14.35;10.30;;;14.70;99.90;;;;;;5042813;28;20016;-63
2022/10/05 03:37:52;;;;;;;14.30;10.90;;;14.70;99.90;;;;;;5047224;28;20052;-62
2022/10/05 03:40:32;;;;;;;15.82;10.57;;;14.70;99.90;;;;;;5045421;28;20496;-62
2022/10/05 03:43:16;;;;;;;12.93;10.13;;;14.70;99.90;;;;;;5046771;28;20545;-62
2022/10/05 03:45:47;;;;;;;13.23;9.75;;;14.70;99.90;;;;;;5046011;28;20038;-62
2022/10/05 03:48:18;;;;;;;14.18;11.43;;;14.70;99.90;;;;;;5041699;28;20025;-62
2022/10/05 03:51:02;;;;;;;14.93;10.98;;;14.70;99.90;;;;;;5037893;28;20322;-62
2022/10/05 03:53:34;;;;;;;16.10;10.70;;;14.70;99.90;;;;;;5043636;28;20032;-63
2022/10/05 03:56:08;;;;;;;13.93;9.88;;;14.70;99.90;;;;;;5046610;28;20535;-62
2022/10/05 03:58:59;;;;;;;14.27;10.70;;;14.70;99.90;;;;;;5045766;28;20415;-63
2022/10/05 04:01:37;;;;;;;13.52;10.30;;;14.70;99.90;;;;;;5036352;28;20409;-62
2022/10/05 04:04:10;;;;;;;14.55;10.60;;;14.70;99.90;;;;;;5047044;28;20021;-63
2022/10/05 04:06:46;;;;;;;13.32;10.40;;;14.70;99.90;;;;;;5048715;28;20393;-62
2022/10/05 04:09:14;;;;;;;12.90;10.27;;;14.70;99.90;;;;;;5043920;28;20469;-62
2022/10/05 04:11:47;;;;;;;14.80;10.93;;;14.70;99.90;;;;;;5043146;28;20378;-63
2022/10/05 04:14:47;;;;;;;11.85;10.45;;;14.70;99.90;;;;;;5044301;28;20025;-62
2022/10/05 04:17:41;;;;;;;12.13;10.15;;;14.70;99.90;;;;;;5031777;28;20033;-62
2022/10/05 04:20:21;;;;;;;13.32;9.23;;;14.70;99.90;;;;;;5042579;28;20111;-62
2022/10/05 04:22:53;;;;;;;;;;;14.70;99.90;;;;;;5061712;28;20017;-63
2022/10/05 04:25:27;;;;;;;13.25;9.75;;;14.70;99.90;;;;;;5063908;28;19920;-62
2022/10/05 04:28:29;;;;;;;15.10;9.65;;;14.70;99.90;;;;;;5045462;28;20555;-62
2022/10/05 04:30:54;;;;;;;11.27;9.05;;;14.70;99.90;;;;;;5066536;28;20055;-62
2022/10/05 04:33:21;;;;;;;11.50;9.20;;;14.70;99.90;;;;;;5060242;28;20662;-62
2022/10/05 04:36:05;;;;;;;14.85;10.60;;;14.60;99.90;;;;;;5052081;28;20017;-62
2022/10/05 04:39:05;;;;;;;14.82;10.00;;;14.70;99.90;;;;;;5065790;28;20052;-62
2022/10/05 04:41:52;;;;;;;13.35;9.63;;;14.70;99.90;;;;;;5009708;28;20065;-62
2022/10/05 04:44:34;;;;;;;15.25;9.15;;;14.70;99.90;;;;;;5048599;28;20032;-62
2022/10/05 04:47:38;;;;;;;11.10;9.35;;;14.70;99.90;;;;;;5049735;28;20017;-63
2022/10/05 04:50:31;;;;;;;10.65;8.50;;;14.70;99.90;;;;;;5049043;28;20094;-62
2022/10/05 04:53:24;;;;;;;11.18;9.40;;;14.70;99.90;;;;;;5045344;28;20469;-62
2022/10/05 04:56:04;;;;;;;11.95;9.60;;;14.70;99.90;;;;;;5050655;28;20100;-62
2022/10/05 04:58:36;;;;;;;12.20;8.70;;;14.70;99.90;;;;;;5047156;28;20017;-62
2022/10/05 05:01:46;;;;;;;9.80;8.77;;;14.70;99.90;;;;;;5049375;28;20110;-62
2022/10/05 05:04:19;;;;;;;11.20;9.20;;;14.70;99.90;;;;;;5048682;28;20048;-62
2022/10/05 05:07:06;;;;;;;11.85;9.45;;;14.60;99.90;;;;;;5048711;28;20049;-63
2022/10/05 05:09:52;;;;;;;13.07;10.00;;;14.70;99.90;;;;;;5044893;28;20099;-62
2022/10/05 05:12:36;;;;;;;12.73;9.57;;;14.60;99.90;;;;;;5050612;28;20029;-62
2022/10/05 05:15:28;;;;;;;17.65;10.98;;;14.60;99.90;;;;;;5048346;28;20485;-63
2022/10/05 05:18:02;;;;;;;13.38;9.93;;;14.50;99.90;;;;;;5065313;28;20388;-63
2022/10/05 05:20:30;;;;;;;14.13;10.30;;;14.50;99.90;;;;;;5046154;28;20477;-63
2022/10/05 05:23:13;;;;;;;13.18;9.73;;;14.50;99.90;;;;;;5057914;28;20040;-62
2022/10/05 05:25:55;;;;;;;15.35;10.73;;;14.50;99.90;;;;;;5049432;28;20496;-63
2022/10/05 05:28:29;;;;;;;14.27;10.25;;;14.50;99.90;;;;;;5049398;28;20094;-62
2022/10/05 05:31:23;;;;;;;12.63;10.02;;;14.50;99.90;;;;;;5059716;28;20044;-62
2022/10/05 05:33:59;;;;;;;13.43;9.30;;;14.50;99.90;;;;;;5033418;28;20068;-62
2022/10/05 05:37:01;;;;;;;11.80;9.30;;;14.50;99.90;;;;;;5051314;28;20036;-62
2022/10/05 05:39:32;;;;;;;10.73;8.73;;;14.60;99.90;;;;;;5047488;28;20167;-62
2022/10/05 05:42:02;;;;;;;11.65;8.50;;;14.50;99.90;;;;;;5055618;28;20051;-62
2022/10/05 05:44:34;;;;;;;13.20;8.02;;;14.60;99.90;;;;;;5051574;28;20047;-62
2022/10/05 05:47:02;;;;;;;10.30;7.90;;;14.60;99.90;;;;;;5050548;28;20021;-63
2022/10/05 05:49:45;;;;;;;8.45;6.35;;;14.60;99.90;;;;;;5045467;28;20028;-63
2022/10/05 05:52:24;;;;;;;9.25;7.20;;;14.70;99.90;;;;;;5052989;28;20033;-63
2022/10/05 05:55:00;;;;;;;8.38;6.32;;;14.70;99.90;;;;;;5053662;28;20033;-62
2022/10/05 05:57:39;;;;;;;9.52;6.88;;;14.70;99.90;;;;;;5048064;28;20044;-62
2022/10/05 06:00:23;;;;;;;7.50;6.72;;;14.80;99.90;;;;;;5049004;28;20103;-62
2022/10/05 06:03:05;;;;;;;6.57;5.80;;;14.80;99.90;;;;;;5053442;28;20113;-63
2022/10/05 06:05:39;;;;;;;7.78;5.75;;;14.80;99.90;;;;;;5054394;28;20047;-62
2022/10/05 06:08:30;;;;;;;7.60;5.65;;;14.80;99.90;;;;;;5054271;28;20094;-63
2022/10/05 06:11:22;;;;;;;8.65;5.53;;;14.80;99.90;;;;;;5043424;28;20022;-62
2022/10/05 06:13:48;;;;;;;7.28;5.78;;;14.90;99.90;;;;;;5037958;28;20082;-62
2022/10/05 06:16:24;;;;;;;8.10;5.90;;;14.90;99.90;;;;;;5049069;28;20025;-62
2022/10/05 06:19:07;;;;;;;9.35;5.72;;;14.90;99.90;;;;;;5052045;28;20043;-62
2022/10/05 06:21:54;;;;;;;9.45;6.40;;;14.90;99.90;;;;;;5042467;28;20029;-62
2022/10/05 06:24:30;;;;;;;7.60;5.82;;;14.80;99.90;;;;;;5034175;28;20497;-62
2022/10/05 06:27:19;;;;;;;7.53;6.00;;;14.80;99.90;;;;;;5049274;28;20071;-62
2022/10/05 06:29:56;;;;;;;7.82;5.57;;;14.80;99.90;;;;;;5042129;28;20070;-63
2022/10/05 06:32:39;;;;;;;6.10;5.43;;;14.80;99.90;;;;;;5034375;28;20020;-63
2022/10/05 06:35:19;;;;;;;10.30;5.50;;;14.90;99.90;;;;;;5048573;28;20036;-62
2022/10/05 06:38:09;;;;;;;6.50;5.05;;;14.90;99.90;;;;;;5053204;28;20074;-62
2022/10/05 06:40:38;;;;;;;8.50;5.25;;;14.90;99.90;;;;;;5039117;28;20033;-62
2022/10/05 06:43:19;;;;;;;7.43;5.55;;;14.80;99.90;;;;;;5056333;28;20501;-63
2022/10/05 06:46:05;;;;;;;7.93;5.60;;;14.90;99.90;;;;;;5041784;28;20053;-63
2022/10/05 06:49:05;;;;;;;9.48;5.82;;;14.90;99.90;;;;;;5046363;28;20109;-62
2022/10/05 06:51:42;;;;;;;7.90;5.88;;;14.90;99.90;;;;;;5038346;28;20472;-63
2022/10/05 06:54:52;;;;;;;7.25;5.45;;;14.80;99.90;;;;;;5030225;28;20448;-62
2022/10/05 06:57:38;;;;;;;6.97;5.30;;;14.90;99.90;;;;;;5033498;28;20033;-62
2022/10/05 07:00:19;;;;;;;7.95;5.80;;;14.80;99.90;;;;;;5062545;28;20021;-62
2022/10/05 07:02:53;;;;;;;7.72;5.95;;;14.80;99.90;;;;;;5043440;28;20072;-62
2022/10/05 07:05:40;;;;;;;6.90;5.43;;;14.90;99.90;;;;;;5044354;28;20059;-62
2022/10/05 07:08:10;;;;;;;6.90;5.28;;;14.90;99.90;;;;;;5048664;28;20516;-62
2022/10/05 07:11:00;;;;;;;6.32;5.22;;;14.90;99.90;;;;;;5047098;28;20021;-62
2022/10/05 07:13:44;;;;;;;5.88;5.22;;;14.90;99.90;;;;;;5062903;28;20017;-62
2022/10/05 07:16:55;;;;;;;7.70;5.45;;;14.90;99.90;;;;;;5045128;28;20060;-62
2022/10/05 07:19:30;;;;;;;8.68;5.70;;;15.00;99.90;;;;;;5040379;28;20457;-63
2022/10/05 07:22:14;;;;;;;5.68;4.93;;;14.90;99.90;;;;;;5041758;28;20100;-62
2022/10/05 07:24:52;;;;;;;5.70;4.90;;;15.00;99.90;;;;;;5036228;28;20072;-62
2022/10/05 07:27:22;;;;;;;7.80;5.22;;;15.00;99.90;;;;;;5033381;28;20017;-62
2022/10/05 07:30:03;;;;;;;10.57;6.10;;;15.00;99.90;;;;;;5050063;28;20029;-63
2022/10/05 07:32:37;;;;;;;5.72;5.07;;;15.10;99.90;;;;;;5048758;28;20021;-62
2022/10/05 07:38:31;;;;;;;5.65;4.43;;;15.10;99.90;;;;;;4988999;28;20030;-62
2022/10/05 07:41:06;;;;;;;6.32;5.07;;;15.10;99.90;;;;;;4990372;28;20099;-62
2022/10/05 07:43:36;;;;;;;6.53;4.13;;;15.20;99.90;;;;;;5018311;28;20045;-63
2022/10/05 07:46:10;;;;;;;6.40;3.90;;;15.20;99.90;;;;;;5051525;28;20017;-62
2022/10/05 07:49:02;;;;;;;5.78;3.47;;;15.30;99.90;;;;;;5052725;28;20143;-62
2022/10/05 07:51:30;;;;;;;6.15;4.18;;;15.30;99.90;;;;;;5032588;28;20053;-62
2022/10/05 07:54:05;;;;;;;5.32;3.88;;;15.40;99.80;;;;;;5050907;28;20020;-62
2022/10/05 07:56:42;;;;;;;8.10;3.90;;;15.40;99.70;;;;;;5051904;28;20081;-62
2022/10/05 07:59:13;;;;;;;5.75;3.38;;;15.50;99.50;;;;;;5052058;28;20075;-62
2022/10/05 08:01:48;;;;;;;4.68;3.75;;;15.50;99.40;;;;;;5051677;28;20107;-62
2022/10/05 08:04:19;;;;;;;4.75;3.10;;;15.60;99.50;;;;;;5050534;28;20079;-62
2022/10/05 08:07:01;;;;;;;4.38;2.95;;;15.60;99.20;;;;;;5049001;28;20026;-62
2022/10/05 08:09:55;;;;;;;5.88;3.33;;;15.70;99.10;;;;;;5033065;28;20029;-63
2022/10/05 08:12:28;;;;;;;4.50;3.40;;;15.80;99.10;;;;;;5049319;28;20366;-62
2022/10/05 08:15:16;;;;;;;6.97;3.45;;;15.80;98.90;;;;;;5051950;28;20017;-63
2022/10/05 08:18:38;;;;;;;6.10;3.45;;;15.90;99.10;;;;;;5049449;28;20025;-62
2022/10/05 08:21:10;;;;;;;7.10;3.28;;;15.90;98.90;;;;;;5027057;28;20532;-62
2022/10/05 08:23:56;;;;;;;7.75;4.55;;;15.80;99.10;;;;;;5045457;28;20025;-63
2022/10/05 08:27:00;;;;;;;5.45;3.90;;;15.90;99.10;;;;;;5037550;28;20025;-62
2022/10/05 08:29:34;;;;;;;7.57;4.03;;;15.90;99.00;;;;;;5051616;28;20059;-62
2022/10/05 08:32:08;;;;;;;4.78;3.30;;;15.90;98.90;;;;;;5052260;28;20025;-62
2022/10/05 08:34:36;;;;;;;5.35;3.88;;;16.00;99.00;;;;;;5046640;28;20465;-62
2022/10/05 08:37:26;;;;;;;5.70;4.10;;;16.00;99.00;;;;;;5047241;28;20025;-62
2022/10/05 08:40:21;;;;;;;4.47;4.00;;;16.10;99.00;;;;;;5050699;28;20393;-62
2022/10/05 08:43:44;;;;;;;5.13;3.88;;;16.20;99.00;;;;;;5039392;28;20122;-63
2022/10/05 08:46:28;;;;;;;4.57;3.33;;;16.20;99.10;;;;;;5029673;28;20026;-62
2022/10/05 08:49:03;;;;;;;4.88;3.75;;;16.30;99.00;;;;;;5035894;28;20562;-62
2022/10/05 08:51:55;;;;;;;6.85;4.60;;;16.40;98.70;;;;;;5043185;28;20488;-63
2022/10/05 08:54:39;;;;;;;5.82;4.18;;;16.40;99.00;;;;;;5046065;28;20061;-62
2022/10/05 08:57:32;;;;;;;5.53;4.18;;;16.50;98.60;;;;;;5048119;28;20556;-63
2022/10/05 09:00:03;;;;;;;4.78;3.58;;;16.60;98.60;;;;;;5049472;28;20068;-62
2022/10/05 09:02:43;;;;;;;4.82;3.60;;;16.60;98.50;;;;;;5048812;28;20028;-62
2022/10/05 09:05:48;;;;;;;8.38;4.80;;;16.70;98.40;;;;;;5048879;28;20546;-63
2022/10/05 09:08:40;;;;;;;5.25;3.92;;;16.80;98.10;;;;;;5048433;28;20033;-63
2022/10/05 09:11:15;;;;;;;10.43;4.75;;;16.80;97.90;;;;;;5048390;28;20032;-63
2022/10/05 09:13:54;;;;;;;4.95;3.53;;;16.80;97.20;;;;;;5044552;28;20029;-62
2022/10/05 09:16:57;;;;;;;4.65;3.50;;;16.80;97.80;;;;;;5053338;28;20021;-62
2022/10/05 09:19:54;;;;;;;4.65;3.60;;;17.00;97.70;;;;;;5054353;28;20017;-62
2022/10/05 09:22:29;;;;;;;5.80;3.63;;;17.00;97.60;;;;;;5054716;28;20025;-62
2022/10/05 09:25:14;;;;;;;6.70;3.33;;;17.10;97.30;;;;;;5042108;28;20076;-63
2022/10/05 09:27:55;;;;;;;5.72;3.30;;;17.10;97.40;;;;;;5053507;28;20424;-63
2022/10/05 09:30:41;;;;;;;5.95;3.30;;;17.10;97.40;;;;;;5053443;28;20116;-63
2022/10/05 09:33:36;;;;;;;6.05;3.88;;;17.20;97.40;;;;;;5042303;28;20029;-63
2022/10/05 09:36:17;;;;;;;6.18;3.83;;;17.20;97.00;;;;;;5053611;28;20028;-62
2022/10/05 09:38:42;;;;;;;7.07;3.40;;;17.10;96.70;;;;;;5053024;28;20075;-62
2022/10/05 09:41:40;;;;;;;9.20;3.65;;;17.20;97.20;;;;;;5053513;28;20025;-63
2022/10/05 09:44:48;;;;;;;9.07;3.20;;;17.30;96.90;;;;;;5052815;28;20063;-63
2022/10/05 09:47:44;;;;;;;4.93;3.03;;;17.30;96.70;;;;;;5053189;28;20106;-63
2022/10/05 09:50:28;;;;;;;6.97;3.80;;;17.40;96.90;;;;;;5054600;28;20163;-63
2022/10/05 09:53:12;;;;;;;4.32;3.30;;;17.50;96.80;;;;;;5064756;28;20469;-62
2022/10/05 09:56:19;;;;;;;4.70;2.95;;;17.50;96.40;;;;;;5040852;28;20028;-62
2022/10/05 09:59:05;;;;;;;5.47;3.10;;;17.60;96.70;;;;;;5053512;28;20268;-63
2022/10/05 10:02:03;;;;;;;4.45;2.67;;;17.70;96.00;;;;;;5054391;28;20052;-63
2022/10/05 10:04:47;;;;;;;3.40;2.63;;;17.70;95.90;;;;;;5044098;28;20029;-63
2022/10/05 10:07:49;;;;;;;5.82;2.80;;;17.80;96.10;;;;;;5054317;28;20040;-63
2022/10/05 10:10:14;;;;;;;4.65;2.80;;;18.10;95.50;;;;;;5053784;28;20382;-63
2022/10/05 10:13:01;;;;;;;4.20;2.38;;;18.50;95.60;;;;;;5052734;28;20032;-63
2022/10/05 10:15:39;;;;;;;5.75;2.47;;;18.80;94.60;;;;;;5054220;28;20057;-63
2022/10/05 10:18:19;;;;;;;6.30;2.78;;;19.10;94.20;;;;;;5053439;28;20096;-63
2022/10/05 10:20:59;;;;;;;5.60;2.90;;;19.50;93.10;;;;;;5051804;28;20040;-63
2022/10/05 10:23:57;;;;;;;6.38;2.72;;;19.70;92.30;;;;;;5046665;28;20025;-63
2022/10/05 10:26:44;;;;;;;5.95;2.45;;;20.00;91.30;;;;;;5033124;28;20045;-63
2022/10/05 10:29:38;;;;;;;4.47;2.67;;;20.10;91.50;;;;;;5041439;28;20495;-63
2022/10/05 10:32:15;;;;;;;4.88;2.47;;;20.30;90.00;;;;;;5046447;28;20025;-63
2022/10/05 10:35:08;;;;;;;5.45;2.40;;;20.00;90.30;;;;;;5052427;28;20388;-63
2022/10/05 10:37:57;;;;;;;2.35;2.15;;;20.20;91.00;;;;;;5049324;28;20090;-63
2022/10/05 10:41:03;;;;;;;3.25;2.72;;;19.90;90.60;;;;;;5052372;28;20029;-63
2022/10/05 10:43:57;;;;;;;4.65;2.80;;;19.70;91.00;;;;;;5043796;28;20045;-63
2022/10/05 10:46:59;;;;;;;4.57;2.90;;;19.50;91.40;;;;;;5049305;28;20456;-63
2022/10/05 10:49:51;;;;;;;3.45;2.15;;;19.30;91.60;;;;;;5051399;28;20099;-63
2022/10/05 10:52:42;;;;;;;4.75;1.85;;;19.20;92.40;;;;;;5054791;28;20059;-63
2022/10/05 10:55:29;;;;;;;3.97;2.58;;;19.10;91.90;;;;;;5050696;28;20047;-63
2022/10/05 10:58:37;;;;;;;2.85;1.65;;;19.00;92.20;;;;;;5051695;28;20021;-63
2022/10/05 11:01:14;;;;;;;5.53;2.03;;;19.10;92.50;;;;;;5065333;28;20021;-63
2022/10/05 11:03:58;;;;;;;3.35;2.10;;;19.50;91.90;;;;;;5051719;28;20068;-63
2022/10/05 11:06:44;;;;;;;3.17;2.00;;;19.30;91.60;;;;;;5050078;28;20114;-63
2022/10/05 11:09:42;;;;;;;3.17;1.95;;;19.20;92.10;;;;;;5050497;28;20017;-63
2022/10/05 11:12:20;;;;;;;1.80;1.30;;;19.10;92.40;;;;;;5043301;28;20029;-63
2022/10/05 11:15:22;;;;;;;3.10;2.00;;;19.20;92.10;;;;;;5048645;28;20112;-62
2022/10/05 11:17:48;;;;;;;3.85;1.88;;;19.20;92.10;;;;;;5045799;28;20028;-63
2022/10/05 11:20:16;;;;;;;2.30;1.52;;;19.40;91.90;;;;;;5049400;28;20021;-63
2022/10/05 11:22:57;;;;;;;4.70;2.08;;;19.60;91.20;;;;;;5053138;28;20099;-63
2022/10/05 11:26:05;;;;;;;5.78;1.65;;;19.60;91.10;;;;;;5052921;28;20039;-63
2022/10/05 11:28:38;;;;;;;4.22;1.92;;;19.30;91.30;;;;;;5027493;28;20450;-62
2022/10/05 11:31:15;;;;;;;2.50;1.90;;;19.10;91.80;;;;;;5043908;28;20021;-63
2022/10/05 11:33:56;;;;;;;5.20;2.35;;;19.10;91.90;;;;;;5043846;28;20065;-63
2022/10/05 11:36:37;;;;;;;3.55;1.95;;;19.00;91.90;;;;;;5056113;28;20029;-63
2022/10/05 11:39:21;;;;;;;3.28;1.90;;;19.10;92.40;;;;;;5047947;28;20029;-63
2022/10/05 11:42:16;;;;;;;3.25;1.80;;;19.10;92.10;;;;;;5044035;28;20048;-63
2022/10/05 11:45:04;;;;;;;3.83;1.40;;;19.40;91.80;;;;;;5042109;28;20037;-63
2022/10/05 11:48:28;;;;;;;3.10;1.73;;;19.50;91.60;;;;;;5041659;28;20473;-63
2022/10/05 11:51:16;;;;;;;2.30;1.27;;;19.60;91.40;;;;;;4998475;28;20045;-63
2022/10/05 11:53:51;;;;;;;5.10;1.88;;;19.70;91.50;;;;;;5052001;28;20055;-63
2022/10/05 11:56:32;;;;;;;4.18;2.10;;;19.70;91.10;;;;;;5051994;28;20021;-63
2022/10/05 11:59:22;;;;;;;3.17;1.63;;;20.00;91.30;;;;;;5052346;28;20501;-63
2022/10/05 12:01:58;;;;;;;2.55;1.90;;;20.40;89.80;;;;;;5051617;28;20017;-63
2022/10/05 12:05:10;;;;;;;3.38;1.50;;;20.30;89.10;;;;;;5050984;28;20025;-63
2022/10/05 12:08:16;;;;;;;3.03;1.80;;;20.60;90.10;;;;;;4987383;28;20594;-63
2022/10/05 12:11:06;;;;;;;3.17;1.27;;;21.20;86.50;;;;;;5039180;28;20074;-63
2022/10/05 12:14:01;;;;;;;3.42;1.20;;;21.00;86.80;;;;;;5045146;28;20474;-62
2022/10/05 12:16:49;;;;;;;3.75;1.40;;;20.90;86.20;;;;;;5042053;28;20017;-62
2022/10/05 12:19:30;;;;;;;2.70;1.58;;;20.90;86.90;;;;;;5052579;28;20013;-63
2022/10/05 12:22:03;;;;;;;2.80;1.50;;;21.50;86.40;;;;;;5045584;28;20028;-63
2022/10/05 12:24:34;;;;;;;3.58;1.23;;;21.70;84.00;;;;;;5042242;28;20024;-63
2022/10/05 12:27:02;;;;;;;3.38;1.30;;;21.90;84.00;;;;;;5034834;28;20456;-63
2022/10/05 12:29:57;;;;;;;3.97;1.48;;;23.30;82.50;;;;;;5051566;28;20053;-63
2022/10/05 12:32:35;;;;;;;3.40;1.10;;;24.00;76.30;;;;;;5047891;28;20083;-63
2022/10/05 12:35:42;;;;;;;2.20;1.00;;;23.80;75.50;;;;;;5050824;28;20029;-63
2022/10/05 12:38:27;;;;;;;2.80;1.08;;;23.30;75.60;;;;;;5043874;28;20439;-63
2022/10/05 12:41:08;;;;;;;1.58;0.80;;;23.10;76.80;;;;;;5052009;28;20575;-63
2022/10/05 12:43:57;;;;;;;2.35;1.02;;;23.10;77.60;;;;;;5050138;28;20051;-63
2022/10/05 12:46:54;;;;;;;1.17;0.70;;;23.30;75.90;;;;;;5048911;28;20032;-63
2022/10/05 12:49:39;;;;;;;2.30;1.10;;;24.10;75.40;;;;;;5058218;28;20021;-63
2022/10/05 12:52:13;;;;;;;2.58;0.90;;;23.80;72.90;;;;;;5042331;28;20050;-63
2022/10/05 12:54:53;;;;;;;2.90;1.10;;;23.40;73.70;;;;;;5046077;28;20063;-63
2022/10/05 12:57:49;;;;;;;3.72;0.98;;;23.00;75.50;;;;;;5053751;28;20017;-63
2022/10/05 13:00:17;;;;;;;3.33;1.10;;;22.80;76.30;;;;;;5054009;28;20025;-63
2022/10/05 13:02:46;;;;;;;3.13;0.85;;;22.70;77.30;;;;;;5055863;28;20103;-63
2022/10/05 13:05:37;;;;;;;2.30;1.02;;;23.50;76.60;;;;;;5042326;28;20017;-63
2022/10/05 13:08:16;;;;;;;1.60;0.90;;;23.90;73.50;;;;;;5054365;28;20029;-63
2022/10/05 13:10:44;;;;;;;3.03;0.98;;;23.90;72.80;;;;;;5054166;28;20025;-63
2022/10/05 13:13:34;;;;;;;3.05;0.70;;;23.80;73.20;;;;;;5055182;28;20035;-63
2022/10/05 13:16:14;;;;;;;1.70;0.90;;;24.50;73.00;;;;;;5055421;28;20028;-63
2022/10/05 13:18:49;;;;;;;1.15;0.75;;;24.70;70.40;;;;;;5035647;28;20033;-63
2022/10/05 13:21:15;;;;;;;3.25;0.85;;;24.40;70.80;;;;;;5038253;28;20017;-63
2022/10/05 13:23:49;;;;;;;1.83;1.00;;;24.40;71.00;;;;;;5045232;28;20029;-63
2022/10/05 13:26:23;;;;;;;2.08;0.82;;;25.00;69.30;;;;;;5055020;28;20017;-63
2022/10/05 13:29:03;;;;;;;3.35;0.82;;;25.10;68.60;;;;;;5055461;28;20025;-63
2022/10/05 13:31:57;;;;;;;2.10;0.98;;;25.40;67.40;;;;;;5043138;28;20013;-63
2022/10/05 13:34:44;;;;;;;1.77;0.65;;;26.10;66.60;;;;;;5070204;28;20018;-63
2022/10/05 13:37:38;;;;;;;3.53;0.90;;;26.40;63.80;;;;;;5054540;28;20025;-63
2022/10/05 13:40:42;;;;;;;1.40;0.60;;;25.90;64.40;;;;;;5054008;28;20032;-63
2022/10/05 13:43:46;;;;;;;2.13;0.80;;;25.30;65.30;;;;;;5014392;28;20094;-63
2022/10/05 13:46:35;;;;;;;1.48;0.60;;;25.80;65.30;;;;;;5044927;28;20025;-63
2022/10/05 13:49:25;;;;;;;3.22;0.88;;;26.30;63.30;;;;;;5053254;28;20021;-63
2022/10/05 13:51:55;;;;;;;1.77;0.90;;;26.40;62.10;;;;;;5060222;28;20452;-63
2022/10/05 13:54:43;;;;;;;1.70;1.13;;;26.60;61.90;;;;;;5034927;28;20017;-63
2022/10/05 13:57:21;;;;;;;2.03;0.90;;;26.50;60.60;;;;;;5047840;28;20021;-63
2022/10/05 13:59:54;;;;;;;2.60;0.73;;;26.40;60.30;;;;;;5045519;28;20519;-64
2022/10/05 14:02:26;;;;;;;4.72;0.90;;;26.00;61.60;;;;;;5041300;28;20021;-63
2022/10/05 14:05:14;;;;;;;2.47;1.10;;;25.60;62.30;;;;;;5053312;28;20079;-63
2022/10/05 14:07:51;;;;;;;2.13;1.00;;;25.10;63.00;;;;;;5034564;28;20025;-63